Latest Weather Observations for Melbourne Airport

IDV60901

Issued at 8:15 am EST Thursday 21 August 2014 (issued every 10 minutes, with the page automatically refreshed every 10 minutes)

About weather observations | Map of Melbourne area stations | Latest observations for Melbourne area | Other Formats
Station Details ID: 086282 Name: MELBOURNE AIRPORT Lat: -37.67 Lon: 144.83 Height: 113.4 m
Data from the previous 72 hours. | See also: Recent months at Melbourne Airport
Date/Time
EST
Tmp

°C
App
Tmp
°C
Dew
Point
°C
Rel
Hum
%
Delta-T

°C
Wind Press
QNH
hPa
Press
MSL
hPa
Rain
since
9 am
mm
Dir
 
Spd
km/h
Gust
km/h
Spd
kts
Gust
kts
21/08:00am 7.7 5.2 6.6 93 0.5 WNW 9 11 5 6 1029.1 1029.3 0.0
21/07:30am 6.7 4.1 6.0 95 0.3 W 9 11 5 6 1028.7 1028.9 0.0
21/07:00am 5.8 3.0 5.3 97 0.2 WNW 9 11 5 6 1028.4 1028.5 0.0
21/06:30am 6.5 5.6 6.1 97 0.2 CALM 0 0 0 0 1028.2 1028.3 0.0
21/06:00am 7.3 6.5 6.6 95 0.3 SW 0 0 0 0 1028.0 1028.1 0.0
21/05:30am 7.6 5.1 6.7 94 0.4 WNW 9 11 5 6 1028.0 1028.1 0.0
21/05:00am 7.7 5.3 6.8 94 0.4 W 9 11 5 6 1027.9 1028.0 0.0
21/04:30am 7.6 5.1 6.7 94 0.4 W 9 11 5 6 1027.9 1028.0 0.0
21/04:00am 7.5 5.0 6.6 94 0.4 WSW 9 11 5 6 1027.7 1027.8 0.0
21/03:30am 7.5 4.6 6.4 93 0.5 W 11 13 6 7 1027.6 1027.7 0.0
21/03:00am 7.5 4.6 6.6 94 0.4 W 11 11 6 6 1027.7 1027.8 0.0
21/02:30am 7.3 4.4 6.6 95 0.3 W 11 11 6 6 1027.8 1027.9 0.0
21/02:00am 7.1 4.1 6.2 94 0.4 W 11 13 6 7 1027.8 1027.9 0.0
21/01:30am 6.7 4.0 5.8 94 0.4 W 9 9 5 5 1027.8 1027.9 0.0
21/01:00am 7.4 4.8 6.3 93 0.5 W 9 11 5 6 1027.8 1027.9 0.0
21/12:30am 7.5 6.3 6.4 93 0.5 WSW 2 7 1 4 1027.9 1028.0 0.0
21/12:00am 7.6 6.8 6.3 91 0.6 WSW 0 0 0 0 1027.9 1028.0 0.0
 
Date/Time
EST
Tmp

°C
App
Tmp
°C
Dew
Point
°C
Rel
Hum
%
Delta-T

°C
Wind Press
QNH
hPa
Press
MSL
hPa
Rain
since
9 am
mm
Dir
 
Spd
km/h
Gust
km/h
Spd
kts
Gust
kts
20/11:30pm 7.6 5.0 6.3 91 0.6 SSW 9 11 5 6 1028.0 1028.1 0.0
20/11:00pm 8.1 5.9 6.4 89 0.8 SSW 7 9 4 5 1028.0 1028.1 0.0
20/10:30pm 9.2 6.3 6.4 83 1.3 S 11 13 6 7 1028.1 1028.2 0.0
20/10:00pm 9.4 6.0 5.9 79 1.6 S 13 17 7 9 1028.3 1028.4 0.0
20/09:30pm 9.6 6.5 5.7 76 1.8 S 11 13 6 7 1028.3 1028.4 0.0
20/09:00pm 9.7 7.1 6.0 78 1.7 S 9 11 5 6 1028.2 1028.3 0.0
20/08:30pm 9.9 6.5 5.8 75 1.9 S 13 17 7 9 1028.2 1028.3 0.0
20/08:00pm 10.0 6.3 4.6 69 2.4 S 13 17 7 9 1028.1 1028.2 0.0
20/07:30pm 10.0 7.0 3.9 66 2.7 S 9 11 5 6 1028.1 1028.2 0.0
20/07:00pm 10.1 6.7 4.0 66 2.7 S 11 13 6 7 1027.9 1028.0 0.0
20/06:30pm 10.2 6.1 4.1 66 2.7 S 15 17 8 9 1027.8 1027.9 0.0
20/06:00pm 10.4 6.6 4.1 65 2.8 S 13 17 7 9 1027.5 1027.6 0.0
20/05:30pm 10.5 6.9 5.0 69 2.5 S 13 17 7 9 1027.1 1027.2 0.0
20/05:00pm 10.7 6.8 5.5 70 2.4 S 15 19 8 10 1026.8 1027.0 0.0
20/04:30pm 10.9 6.2 5.0 67 2.7 SSE 19 22 10 12 1026.6 1026.8 0.0
20/04:00pm 11.2 6.6 3.8 60 3.3 SSE 17 20 9 11 1026.5 1026.7 0.0
20/03:30pm 11.6 7.1 4.0 59 3.4 SSE 17 24 9 13 1026.3 1026.5 0.0
20/03:00pm 12.0 7.3 2.9 53 4.0 S 17 19 9 10 1026.2 1026.4 0.0
20/02:30pm 12.1 7.8 3.0 53 4.0 SSE 15 20 8 11 1026.1 1026.3 0.0
20/02:00pm 11.9 7.2 3.0 54 3.9 SSE 17 24 9 13 1026.1 1026.3 0.0
20/01:30pm 12.1 8.1 3.0 53 4.0 S 13 19 7 10 1026.1 1026.3 0.0
20/01:00pm 11.5 7.5 3.0 56 3.7 SSE 13 19 7 10 1026.4 1026.6 0.0
20/12:30pm 11.6 7.0 3.5 57 3.6 S 17 20 9 11 1026.6 1026.8 0.0
20/12:00pm 11.2 6.6 3.5 59 3.4 SSE 17 22 9 12 1027.1 1027.2 0.0
20/11:30am 10.9 6.4 4.2 63 3.0 SSE 17 19 9 10 1027.3 1027.4 0.0
20/11:00am 11.0 6.7 3.2 58 3.4 S 15 19 8 10 1027.3 1027.4 0.0
20/10:30am 11.1 8.2 4.4 63 3.0 SSE 9 13 5 7 1027.4 1027.5 0.0
20/10:00am 10.6 8.2 5.3 70 2.4 S 7 9 4 5 1027.4 1027.5 0.0
20/09:30am 10.1 7.3 5.0 70 2.3 SSW 9 11 5 6 1027.3 1027.4 0.0
20/09:00am 9.9 6.9 4.3 68 2.5 S 9 15 5 8 1027.1 1027.2 0.2
20/08:30am 9.4 8.1 3.9 68 2.4 CALM 0 0 0 0 1026.7 1026.9 0.2
20/08:00am 8.5 6.5 4.4 75 1.8 SW 4 6 2 3 1026.5 1026.7 0.2
20/07:30am 8.1 5.5 4.2 76 1.7 SSW 7 9 4 5 1026.3 1026.5 0.2
20/07:00am 8.2 5.5 3.8 74 1.9 ESE 7 13 4 7 1026.0 1026.2 0.2
20/06:30am 8.9 5.2 2.2 63 2.8 ESE 11 15 6 8 1025.7 1025.9 0.2
20/06:00am 8.9 7.3 2.2 63 2.8 CALM 0 0 0 0 1025.6 1025.8 0.2
20/05:30am 8.5 5.0 3.4 70 2.2 SE 11 17 6 9 1025.5 1025.7 0.2
20/05:00am 8.7 4.6 2.2 63 2.7 SE 13 15 7 8 1025.3 1025.5 0.2
20/04:30am 9.1 4.5 1.6 59 3.1 SSE 15 19 8 10 1025.4 1025.6 0.2
20/04:00am 9.0 4.1 2.1 62 2.9 SSE 17 24 9 13 1025.3 1025.5 0.2
20/03:30am 9.2 4.7 2.0 60 3.0 S 15 22 8 12 1025.3 1025.5 0.2
20/03:00am 8.7 5.7 4.1 73 2.0 S 9 13 5 7 1025.3 1025.5 0.2
20/02:30am 8.6 5.3 4.3 74 1.9 SSE 11 13 6 7 1025.3 1025.5 0.2
20/02:00am 8.8 5.3 3.7 70 2.2 S 11 13 6 7 1025.4 1025.6 0.2
20/01:30am 8.7 6.1 4.4 74 1.9 SSW 7 11 4 6 1025.7 1025.9 0.2
20/01:00am 8.5 6.0 4.9 78 1.6 S 7 9 4 5 1025.6 1025.8 0.2
20/12:30am 8.7 5.8 4.6 75 1.8 SSE 9 13 5 7 1025.7 1025.9 0.2
20/12:00am 8.9 6.0 4.4 73 2.0 S 9 11 5 6 1025.6 1025.8 0.2
 
Date/Time
EST
Tmp

°C
App
Tmp
°C
Dew
Point
°C
Rel
Hum
%
Delta-T

°C
Wind Press
QNH
hPa
Press
MSL
hPa
Rain
since
9 am
mm
Dir
 
Spd
km/h
Gust
km/h
Spd
kts
Gust
kts
19/11:30pm 9.0 6.0 4.2 72 2.1 S 9 9 5 5 1025.8 1026.0 0.2
19/11:00pm 9.4 5.6 3.7 67 2.5 SE 13 15 7 8 1025.7 1025.9 0.2
19/10:30pm 9.4 4.8 3.9 68 2.4 SE 17 24 9 13 1025.8 1026.0 0.2
19/10:00pm 9.7 5.1 3.8 66 2.6 SSE 17 24 9 13 1025.8 1026.0 0.2
19/09:30pm 9.6 5.6 4.9 72 2.1 S 15 20 8 11 1025.7 1025.9 0.2
19/09:00pm 9.6 6.5 5.4 75 1.9 S 11 15 6 8 1025.6 1025.8 0.2
19/08:30pm 9.7 6.2 5.3 74 2.0 SSE 13 20 7 11 1025.5 1025.7 0.2
19/08:00pm 9.8 5.8 4.9 71 2.2 SSE 15 19 8 10 1025.4 1025.6 0.2
19/07:30pm 10.0 6.4 4.9 70 2.3 S 13 17 7 9 1025.4 1025.6 0.2
19/07:00pm 10.0 6.0 4.9 70 2.3 S 15 20 8 11 1025.1 1025.3 0.2
19/06:30pm 10.2 5.8 4.9 69 2.4 S 17 26 9 14 1024.8 1025.0 0.2
19/06:00pm 10.3 6.0 5.2 70 2.3 S 17 20 9 11 1024.6 1024.8 0.0
19/05:30pm 10.6 6.2 4.9 68 2.6 S 17 22 9 12 1024.3 1024.5 0.2
19/05:00pm 10.8 6.5 5.1 68 2.6 S 17 22 9 12 1024.2 1024.4 0.2
19/04:30pm 11.0 6.3 5.1 67 2.7 S 19 26 10 14 1024.1 1024.3 0.2
19/04:00pm 11.1 6.2 5.2 67 2.7 S 20 28 11 15 1023.9 1024.1 0.2
19/03:30pm 11.4 6.4 4.6 63 3.1 S 20 30 11 16 1023.8 1024.0 0.2
19/03:00pm 11.4 6.4 4.6 63 3.1 S 20 26 11 14 1023.7 1023.9 0.2
19/02:30pm 11.3 6.4 4.2 61 3.2 S 19 28 10 15 1023.8 1024.0 0.2
19/02:00pm 11.3 6.7 5.4 67 2.7 S 19 26 10 14 1023.8 1024.0 0.0
19/01:30pm 11.1 6.5 5.7 69 2.5 S 19 26 10 14 1023.9 1024.1 0.0
19/01:00pm 11.1 6.0 6.2 72 2.3 S 22 30 12 16 1024.1 1024.3 0.0
19/12:30pm 11.2 5.6 5.6 68 2.6 S 24 32 13 17 1024.2 1024.4 0.0
19/12:00pm 11.7 6.9 5.7 66 2.8 SSE 20 28 11 15 1024.5 1024.7 0.0
19/11:30am 11.7 6.4 6.9 72 2.3 SSE 24 30 13 16 1024.7 1024.9 0.0
19/11:00am 11.5 7.1 7.6 77 1.9 SSE 20 26 11 14 1024.9 1025.1 0.0
19/10:30am 11.1 6.7 7.6 79 1.7 SSE 20 28 11 15 1024.9 1025.1 0.0
19/10:00am 10.9 6.0 7.1 77 1.8 SSE 22 28 12 15 1024.8 1025.0 0.0
19/09:30am 10.7 6.4 7.8 82 1.4 SSE 20 26 11 14 1024.7 1024.9 0.0
19/09:00am 10.5 6.2 7.8 83 1.3 SSE 20 26 11 14 1024.7 1024.9 3.8
19/08:30am 9.9 5.1 7.4 84 1.2 SSE 22 30 12 16 1024.6 1024.8 3.8
19/08:00am 9.7 7.1 7.8 88 0.9 S 11 17 6 9 1024.4 1024.6 3.8
19/07:30am 9.6 5.4 7.5 87 1.0 SSE 19 26 10 14 1024.1 1024.3 3.8
19/07:00am 9.6 5.4 7.3 85 1.1 SSE 19 26 10 14 1023.8 1024.0 3.8
19/06:30am 9.6 5.8 7.5 87 1.0 SSE 17 22 9 12 1023.5 1023.7 3.8
19/06:00am 9.6 5.6 8.4 92 0.6 SSE 19 24 10 13 1023.3 1023.5 3.8
19/05:30am 9.5 6.8 8.9 96 0.3 S 13 17 7 9 1023.2 1023.4 3.8
19/05:00am 9.5 6.7 8.7 95 0.4 S 13 17 7 9 1023.0 1023.2 3.8
19/04:30am 9.5 6.8 8.9 96 0.3 S 13 17 7 9 1022.9 1023.1 3.8
19/04:00am 9.5 7.1 8.7 95 0.4 S 11 13 6 7 1022.8 1023.0 3.8
19/03:30am 9.4 6.6 8.6 95 0.4 S 13 17 7 9 1022.7 1022.9 3.8
19/03:21am 9.4 6.3 8.8 96 0.3 S 15 19 8 10 1022.7 1022.9 3.8
19/03:08am 9.5 6.0 8.9 96 0.3 S 17 22 9 12 1022.7 1022.9 3.8
19/03:00am 9.5 6.1 9.1 97 0.2 S 17 24 9 13 1022.7 1022.9 3.8
19/02:30am 9.7 5.9 8.9 95 0.4 S 19 26 10 14 1022.8 1023.0 3.6
19/02:00am 9.8 6.3 8.8 93 0.5 S 17 20 9 11 1022.8 1023.0 3.6
19/01:30am 9.9 6.4 8.7 92 0.6 S 17 19 9 10 1022.9 1023.1 3.6
19/01:00am 9.8 7.1 8.8 93 0.5 S 13 17 7 9 1022.8 1023.0 3.6
19/12:30am 9.8 7.1 8.8 93 0.5 SSW 13 17 7 9 1022.9 1023.1 3.6
19/12:00am 9.7 6.6 8.7 93 0.5 S 15 22 8 12 1022.9 1023.1 3.6
 
Date/Time
EST
Tmp

°C
App
Tmp
°C
Dew
Point
°C
Rel
Hum
%
Delta-T

°C
Wind Press
QNH
hPa
Press
MSL
hPa
Rain
since
9 am
mm
Dir
 
Spd
km/h
Gust
km/h
Spd
kts
Gust
kts
18/11:30pm 9.7 6.5 8.5 92 0.6 S 15 20 8 11 1023.0 1023.2 3.6
18/11:00pm 9.6 6.4 8.6 93 0.5 S 15 19 8 10 1023.0 1023.2 3.6
18/10:30pm 9.6 6.1 8.8 95 0.4 S 17 20 9 11 1022.9 1023.1 3.6
18/10:00pm 9.7 5.8 8.5 92 0.6 S 19 24 10 13 1022.8 1023.0 3.6
18/09:50pm 9.7 5.8 8.5 92 0.6 S 19 26 10 14 1022.8 1023.0 3.6
18/09:30pm 9.7 5.8 8.5 92 0.6 S 19 26 10 14 1022.7 1022.9 3.6
18/09:00pm 9.7 5.8 8.7 93 0.5 S 19 26 10 14 1022.5 1022.7 3.6
18/08:30pm 9.7 6.2 8.7 93 0.5 S 17 20 9 11 1022.4 1022.6 3.6
18/08:00pm 9.8 6.3 8.6 92 0.6 S 17 24 9 13 1022.2 1022.4 3.6
18/07:30pm 9.6 6.5 9.0 96 0.3 S 15 19 8 10 1022.0 1022.2 3.6
18/07:00pm 9.6 6.5 9.0 96 0.3 S 15 17 8 9 1021.8 1022.0 3.6
18/06:30pm 9.7 6.6 8.9 95 0.4 S 15 19 8 10 1021.6 1021.8 3.6
18/06:00pm 9.6 6.5 9.0 96 0.3 S 15 19 8 10 1021.3 1021.4 3.4
18/05:30pm 9.7 5.8 8.7 93 0.5 S 19 26 10 14 1021.1 1021.2 3.4
18/05:00pm 9.9 6.8 8.9 93 0.5 S 15 22 8 12 1020.9 1021.0 3.0
18/04:30pm 10.0 6.5 8.8 92 0.6 S 17 26 9 14 1020.7 1020.8 2.2
18/04:00pm 10.2 6.3 8.6 90 0.8 S 19 28 10 15 1020.6 1020.7 1.6
18/03:30pm 10.4 6.3 8.6 89 0.9 S 20 28 11 15 1020.5 1020.6 0.8
18/03:00pm 10.7 6.6 8.5 86 1.1 S 20 28 11 15 1020.3 1020.4 0.2
18/02:30pm 10.9 6.2 7.8 81 1.5 S 22 30 12 16 1020.2 1020.3 0.0
18/02:00pm 11.3 5.6 6.7 73 2.2 S 26 33 14 18 1020.2 1020.3 0.0
18/01:30pm 11.9 6.0 7.4 74 2.2 S 28 35 15 19 1020.1 1020.2 0.0
18/01:00pm 12.2 6.8 6.3 67 2.8 SSE 24 30 13 16 1020.3 1020.4 0.0
18/12:30pm 12.1 5.8 5.7 65 3.0 S 28 33 15 18 1020.5 1020.6 0.0
18/12:00pm 12.4 6.6 6.3 66 2.9 S 26 35 14 19 1020.8 1020.9 0.0
18/11:30am 11.9 6.8 6.2 68 2.7 S 22 30 12 16 1021.1 1021.2 0.0
18/11:00am 11.9 7.0 6.9 71 2.4 S 22 32 12 17 1021.2 1021.3 0.0
18/10:30am 11.0 7.0 8.4 84 1.3 S 19 26 10 14 1021.2 1021.3 0.0
18/10:00am 10.8 6.7 7.9 82 1.4 S 19 30 10 16 1021.1 1021.2 0.0
18/09:30am 10.7 6.4 7.8 82 1.4 S 20 26 11 14 1021.1 1021.2 0.0
18/09:00am 10.5 6.7 7.4 81 1.5 S 17 22 9 12 1021.0 1021.1 0.0
18/08:30am 10.4 6.5 7.0 79 1.6 S 17 26 9 14 1020.9 1021.0 0.0

Latest Capital City Observations: Canberra | Sydney | Melbourne | Brisbane | Adelaide | Perth | Hobart | Darwin

Other Formats:

Comma delimited format used in spreadsheet applications
http://www.bom.gov.au/fwo/IDV60901/IDV60901.94866.axf

JavaScript Object Notation format (JSON) in row-major order
http://www.bom.gov.au/fwo/IDV60901/IDV60901.94866.json